sensor_id;sensor_type;location;lat;lon;timestamp;P1;durP1;ratioP1;P2;durP2;ratioP2
18580;SDS011;9420;50.876;7.012;2023-07-28T00:00:41;3.57;;;1.07;;
18580;SDS011;9420;50.876;7.012;2023-07-28T00:03:08;1.97;;;0.93;;
18580;SDS011;9420;50.876;7.012;2023-07-28T00:05:35;1.00;;;0.80;;
18580;SDS011;9420;50.876;7.012;2023-07-28T00:08:02;2.80;;;1.63;;
18580;SDS011;9420;50.876;7.012;2023-07-28T00:10:29;1.80;;;0.77;;
18580;SDS011;9420;50.876;7.012;2023-07-28T00:12:55;1.00;;;0.73;;
18580;SDS011;9420;50.876;7.012;2023-07-28T00:15:22;3.80;;;1.00;;
18580;SDS011;9420;50.876;7.012;2023-07-28T00:17:50;1.33;;;0.87;;
18580;SDS011;9420;50.876;7.012;2023-07-28T00:20:17;1.20;;;0.70;;
18580;SDS011;9420;50.876;7.012;2023-07-28T00:22:44;1.10;;;0.77;;
18580;SDS011;9420;50.876;7.012;2023-07-28T00:25:10;1.57;;;0.77;;
18580;SDS011;9420;50.876;7.012;2023-07-28T00:27:37;1.00;;;0.90;;
18580;SDS011;9420;50.876;7.012;2023-07-28T00:30:04;1.37;;;0.87;;
18580;SDS011;9420;50.876;7.012;2023-07-28T00:32:31;1.80;;;1.20;;
18580;SDS011;9420;50.876;7.012;2023-07-28T00:34:59;2.80;;;1.10;;
18580;SDS011;9420;50.876;7.012;2023-07-28T00:37:26;2.87;;;0.90;;
18580;SDS011;9420;50.876;7.012;2023-07-28T00:39:52;2.53;;;0.90;;
18580;SDS011;9420;50.876;7.012;2023-07-28T00:42:19;3.70;;;1.10;;
18580;SDS011;9420;50.876;7.012;2023-07-28T00:44:45;3.53;;;1.17;;
18580;SDS011;9420;50.876;7.012;2023-07-28T00:47:12;2.30;;;1.30;;
18580;SDS011;9420;50.876;7.012;2023-07-28T00:49:39;5.60;;;1.57;;
18580;SDS011;9420;50.876;7.012;2023-07-28T00:52:08;5.83;;;1.57;;
18580;SDS011;9420;50.876;7.012;2023-07-28T00:54:35;2.00;;;1.50;;
18580;SDS011;9420;50.876;7.012;2023-07-28T00:57:02;4.13;;;1.60;;
18580;SDS011;9420;50.876;7.012;2023-07-28T00:59:30;2.47;;;1.47;;
18580;SDS011;9420;50.876;7.012;2023-07-28T01:01:57;4.33;;;1.40;;
18580;SDS011;9420;50.876;7.012;2023-07-28T01:04:23;2.77;;;1.53;;
18580;SDS011;9420;50.876;7.012;2023-07-28T01:06:52;1.27;;;1.10;;
18580;SDS011;9420;50.876;7.012;2023-07-28T01:09:26;3.30;;;1.27;;
18580;SDS011;9420;50.876;7.012;2023-07-28T01:12:00;1.70;;;1.17;;
18580;SDS011;9420;50.876;7.012;2023-07-28T01:14:33;1.23;;;0.80;;
18580;SDS011;9420;50.876;7.012;2023-07-28T01:16:59;3.87;;;1.03;;
18580;SDS011;9420;50.876;7.012;2023-07-28T01:19:26;3.03;;;1.10;;
18580;SDS011;9420;50.876;7.012;2023-07-28T01:21:53;2.83;;;1.20;;
18580;SDS011;9420;50.876;7.012;2023-07-28T01:24:29;3.63;;;1.20;;
18580;SDS011;9420;50.876;7.012;2023-07-28T01:27:05;3.33;;;1.57;;
18580;SDS011;9420;50.876;7.012;2023-07-28T01:29:32;2.53;;;1.20;;
18580;SDS011;9420;50.876;7.012;2023-07-28T01:31:59;2.27;;;1.30;;
18580;SDS011;9420;50.876;7.012;2023-07-28T01:34:26;1.40;;;1.03;;
18580;SDS011;9420;50.876;7.012;2023-07-28T01:36:53;5.33;;;1.57;;
18580;SDS011;9420;50.876;7.012;2023-07-28T01:39:19;2.63;;;1.20;;
18580;SDS011;9420;50.876;7.012;2023-07-28T01:41:46;1.73;;;1.17;;
18580;SDS011;9420;50.876;7.012;2023-07-28T01:44:14;1.57;;;0.60;;
18580;SDS011;9420;50.876;7.012;2023-07-28T01:46:41;3.83;;;0.97;;
18580;SDS011;9420;50.876;7.012;2023-07-28T01:49:07;1.57;;;0.60;;
18580;SDS011;9420;50.876;7.012;2023-07-28T01:51:34;1.20;;;0.57;;
18580;SDS011;9420;50.876;7.012;2023-07-28T01:54:00;0.43;;;0.37;;
18580;SDS011;9420;50.876;7.012;2023-07-28T01:56:27;1.33;;;0.73;;
18580;SDS011;9420;50.876;7.012;2023-07-28T01:58:54;2.70;;;0.70;;
18580;SDS011;9420;50.876;7.012;2023-07-28T02:01:22;2.40;;;0.50;;
18580;SDS011;9420;50.876;7.012;2023-07-28T02:03:48;1.17;;;0.70;;
18580;SDS011;9420;50.876;7.012;2023-07-28T02:06:15;3.13;;;0.70;;
18580;SDS011;9420;50.876;7.012;2023-07-28T02:08:41;2.37;;;0.70;;
18580;SDS011;9420;50.876;7.012;2023-07-28T02:11:08;2.03;;;0.70;;
18580;SDS011;9420;50.876;7.012;2023-07-28T02:13:35;0.67;;;0.57;;
18580;SDS011;9420;50.876;7.012;2023-07-28T02:16:01;6.20;;;0.60;;
18580;SDS011;9420;50.876;7.012;2023-07-28T02:18:29;3.13;;;0.73;;
18580;SDS011;9420;50.876;7.012;2023-07-28T02:20:56;1.63;;;1.00;;
18580;SDS011;9420;50.876;7.012;2023-07-28T02:23:23;1.07;;;0.50;;
18580;SDS011;9420;50.876;7.012;2023-07-28T02:25:49;1.47;;;0.60;;
18580;SDS011;9420;50.876;7.012;2023-07-28T02:28:16;3.60;;;0.90;;
18580;SDS011;9420;50.876;7.012;2023-07-28T02:30:42;1.00;;;0.50;;
18580;SDS011;9420;50.876;7.012;2023-07-28T02:33:09;2.27;;;0.40;;
18580;SDS011;9420;50.876;7.012;2023-07-28T02:35:37;0.67;;;0.40;;
18580;SDS011;9420;50.876;7.012;2023-07-28T02:38:04;1.87;;;0.37;;
18580;SDS011;9420;50.876;7.012;2023-07-28T02:40:31;1.83;;;0.50;;
18580;SDS011;9420;50.876;7.012;2023-07-28T02:42:58;1.50;;;0.43;;
18580;SDS011;9420;50.876;7.012;2023-07-28T02:45:25;4.20;;;0.60;;
18580;SDS011;9420;50.876;7.012;2023-07-28T02:47:51;0.60;;;0.50;;
18580;SDS011;9420;50.876;7.012;2023-07-28T02:50:18;2.43;;;0.50;;
18580;SDS011;9420;50.876;7.012;2023-07-28T02:52:46;3.43;;;0.60;;
18580;SDS011;9420;50.876;7.012;2023-07-28T02:55:13;3.90;;;0.83;;
18580;SDS011;9420;50.876;7.012;2023-07-28T02:57:39;2.30;;;0.70;;
18580;SDS011;9420;50.876;7.012;2023-07-28T03:00:06;1.47;;;0.50;;
18580;SDS011;9420;50.876;7.012;2023-07-28T03:02:35;1.50;;;0.50;;
18580;SDS011;9420;50.876;7.012;2023-07-28T03:05:02;0.50;;;0.30;;
18580;SDS011;9420;50.876;7.012;2023-07-28T03:07:29;2.53;;;0.40;;
18580;SDS011;9420;50.876;7.012;2023-07-28T03:09:57;2.20;;;0.43;;
18580;SDS011;9420;50.876;7.012;2023-07-28T03:12:24;7.93;;;0.70;;
18580;SDS011;9420;50.876;7.012;2023-07-28T03:14:51;6.97;;;0.53;;
18580;SDS011;9420;50.876;7.012;2023-07-28T03:17:17;1.90;;;0.47;;
18580;SDS011;9420;50.876;7.012;2023-07-28T03:19:44;3.37;;;0.50;;
18580;SDS011;9420;50.876;7.012;2023-07-28T03:22:11;0.70;;;0.40;;
18580;SDS011;9420;50.876;7.012;2023-07-28T03:24:37;1.60;;;0.50;;
18580;SDS011;9420;50.876;7.012;2023-07-28T03:27:06;1.00;;;0.40;;
18580;SDS011;9420;50.876;7.012;2023-07-28T03:29:33;3.10;;;0.53;;
18580;SDS011;9420;50.876;7.012;2023-07-28T03:32:00;1.60;;;0.33;;
18580;SDS011;9420;50.876;7.012;2023-07-28T03:34:27;0.40;;;0.20;;
18580;SDS011;9420;50.876;7.012;2023-07-28T03:36:53;2.63;;;1.30;;
18580;SDS011;9420;50.876;7.012;2023-07-28T03:39:20;2.17;;;0.63;;
18580;SDS011;9420;50.876;7.012;2023-07-28T03:41:47;4.00;;;0.80;;
18580;SDS011;9420;50.876;7.012;2023-07-28T03:44:15;3.70;;;0.47;;
18580;SDS011;9420;50.876;7.012;2023-07-28T03:46:41;1.43;;;0.40;;
18580;SDS011;9420;50.876;7.012;2023-07-28T03:49:08;2.00;;;0.47;;
18580;SDS011;9420;50.876;7.012;2023-07-28T03:51:35;0.70;;;0.30;;
18580;SDS011;9420;50.876;7.012;2023-07-28T03:54:01;4.13;;;0.23;;
18580;SDS011;9420;50.876;7.012;2023-07-28T03:56:28;2.03;;;0.50;;
18580;SDS011;9420;50.876;7.012;2023-07-28T03:58:55;1.33;;;0.40;;
18580;SDS011;9420;50.876;7.012;2023-07-28T04:01:23;1.10;;;1.00;;
18580;SDS011;9420;50.876;7.012;2023-07-28T04:03:49;0.93;;;0.30;;
18580;SDS011;9420;50.876;7.012;2023-07-28T04:06:16;1.73;;;0.27;;
18580;SDS011;9420;50.876;7.012;2023-07-28T04:08:43;1.40;;;0.37;;
18580;SDS011;9420;50.876;7.012;2023-07-28T04:11:10;6.20;;;0.43;;
18580;SDS011;9420;50.876;7.012;2023-07-28T04:13:36;1.27;;;0.20;;
18580;SDS011;9420;50.876;7.012;2023-07-28T04:16:03;5.83;;;0.70;;
18580;SDS011;9420;50.876;7.012;2023-07-28T04:18:31;2.60;;;0.53;;
18580;SDS011;9420;50.876;7.012;2023-07-28T04:20:58;2.40;;;0.33;;
18580;SDS011;9420;50.876;7.012;2023-07-28T04:23:25;5.33;;;0.80;;
18580;SDS011;9420;50.876;7.012;2023-07-28T04:25:51;0.53;;;0.40;;
18580;SDS011;9420;50.876;7.012;2023-07-28T04:28:18;0.70;;;0.37;;
18580;SDS011;9420;50.876;7.012;2023-07-28T04:30:45;6.60;;;0.77;;
18580;SDS011;9420;50.876;7.012;2023-07-28T04:33:11;0.40;;;0.30;;
18580;SDS011;9420;50.876;7.012;2023-07-28T04:35:39;5.33;;;0.77;;
18580;SDS011;9420;50.876;7.012;2023-07-28T04:38:05;0.70;;;0.43;;
18580;SDS011;9420;50.876;7.012;2023-07-28T04:40:32;0.73;;;0.40;;
18580;SDS011;9420;50.876;7.012;2023-07-28T04:42:59;1.20;;;0.50;;
18580;SDS011;9420;50.876;7.012;2023-07-28T04:45:25;5.17;;;0.80;;
18580;SDS011;9420;50.876;7.012;2023-07-28T04:47:52;0.60;;;0.60;;
18580;SDS011;9420;50.876;7.012;2023-07-28T04:50:18;5.87;;;0.80;;
18580;SDS011;9420;50.876;7.012;2023-07-28T04:52:46;3.97;;;0.70;;
18580;SDS011;9420;50.876;7.012;2023-07-28T04:55:13;1.70;;;0.73;;
18580;SDS011;9420;50.876;7.012;2023-07-28T04:57:40;2.30;;;0.60;;
18580;SDS011;9420;50.876;7.012;2023-07-28T05:00:07;3.30;;;0.57;;
18580;SDS011;9420;50.876;7.012;2023-07-28T05:02:34;3.50;;;1.10;;
18580;SDS011;9420;50.876;7.012;2023-07-28T05:05:01;1.33;;;0.70;;
18580;SDS011;9420;50.876;7.012;2023-07-28T05:07:27;3.10;;;0.70;;
18580;SDS011;9420;50.876;7.012;2023-07-28T05:09:55;1.13;;;0.70;;
18580;SDS011;9420;50.876;7.012;2023-07-28T05:12:22;5.00;;;0.87;;
18580;SDS011;9420;50.876;7.012;2023-07-28T05:14:49;4.43;;;0.87;;
18580;SDS011;9420;50.876;7.012;2023-07-28T05:17:15;2.17;;;0.90;;
18580;SDS011;9420;50.876;7.012;2023-07-28T05:19:42;4.93;;;0.60;;
18580;SDS011;9420;50.876;7.012;2023-07-28T05:22:08;3.37;;;1.00;;
18580;SDS011;9420;50.876;7.012;2023-07-28T05:24:35;5.00;;;1.30;;
18580;SDS011;9420;50.876;7.012;2023-07-28T05:27:03;1.63;;;0.90;;
18580;SDS011;9420;50.876;7.012;2023-07-28T05:29:30;2.53;;;0.87;;
18580;SDS011;9420;50.876;7.012;2023-07-28T05:31:57;1.03;;;0.73;;
18580;SDS011;9420;50.876;7.012;2023-07-28T05:34:25;4.73;;;1.97;;
18580;SDS011;9420;50.876;7.012;2023-07-28T05:36:52;2.63;;;1.37;;
18580;SDS011;9420;50.876;7.012;2023-07-28T05:39:19;4.13;;;0.83;;
18580;SDS011;9420;50.876;7.012;2023-07-28T05:41:45;1.10;;;1.00;;
18580;SDS011;9420;50.876;7.012;2023-07-28T05:44:13;2.03;;;1.10;;
18580;SDS011;9420;50.876;7.012;2023-07-28T05:46:40;2.00;;;1.33;;
18580;SDS011;9420;50.876;7.012;2023-07-28T05:49:07;3.80;;;1.03;;
18580;SDS011;9420;50.876;7.012;2023-07-28T05:51:34;3.47;;;0.80;;
18580;SDS011;9420;50.876;7.012;2023-07-28T05:54:01;1.43;;;1.07;;
18580;SDS011;9420;50.876;7.012;2023-07-28T05:56:27;2.97;;;1.03;;
18580;SDS011;9420;50.876;7.012;2023-07-28T05:58:54;3.50;;;1.00;;
18580;SDS011;9420;50.876;7.012;2023-07-28T06:01:23;1.20;;;0.73;;
18580;SDS011;9420;50.876;7.012;2023-07-28T06:03:51;1.00;;;0.47;;
18580;SDS011;9420;50.876;7.012;2023-07-28T06:06:20;1.73;;;0.33;;
18580;SDS011;9420;50.876;7.012;2023-07-28T06:08:47;0.73;;;0.40;;
18580;SDS011;9420;50.876;7.012;2023-07-28T06:11:13;2.60;;;0.50;;
18580;SDS011;9420;50.876;7.012;2023-07-28T06:13:40;2.27;;;0.60;;
18580;SDS011;9420;50.876;7.012;2023-07-28T06:16:07;1.50;;;0.80;;
18580;SDS011;9420;50.876;7.012;2023-07-28T06:18:34;4.03;;;0.53;;
18580;SDS011;9420;50.876;7.012;2023-07-28T06:21:01;2.03;;;0.40;;
18580;SDS011;9420;50.876;7.012;2023-07-28T06:23:28;0.87;;;0.67;;
18580;SDS011;9420;50.876;7.012;2023-07-28T06:25:54;1.27;;;0.80;;
18580;SDS011;9420;50.876;7.012;2023-07-28T06:28:21;2.20;;;0.50;;
18580;SDS011;9420;50.876;7.012;2023-07-28T06:30:53;0.97;;;0.47;;
18580;SDS011;9420;50.876;7.012;2023-07-28T06:33:19;1.13;;;0.50;;
18580;SDS011;9420;50.876;7.012;2023-07-28T06:35:47;1.00;;;0.50;;
18580;SDS011;9420;50.876;7.012;2023-07-28T06:38:14;2.67;;;0.67;;
18580;SDS011;9420;50.876;7.012;2023-07-28T06:40:40;1.00;;;0.77;;
18580;SDS011;9420;50.876;7.012;2023-07-28T06:43:07;0.70;;;0.57;;
18580;SDS011;9420;50.876;7.012;2023-07-28T06:45:34;0.60;;;0.40;;
18580;SDS011;9420;50.876;7.012;2023-07-28T06:48:00;2.00;;;0.40;;
18580;SDS011;9420;50.876;7.012;2023-07-28T06:50:27;3.30;;;0.60;;
18580;SDS011;9420;50.876;7.012;2023-07-28T06:52:55;1.73;;;0.77;;
18580;SDS011;9420;50.876;7.012;2023-07-28T06:55:22;2.40;;;0.63;;
18580;SDS011;9420;50.876;7.012;2023-07-28T06:57:49;1.10;;;0.47;;
18580;SDS011;9420;50.876;7.012;2023-07-28T07:00:16;1.00;;;0.50;;
18580;SDS011;9420;50.876;7.012;2023-07-28T07:02:44;1.97;;;0.90;;
18580;SDS011;9420;50.876;7.012;2023-07-28T07:05:11;2.97;;;0.40;;
18580;SDS011;9420;50.876;7.012;2023-07-28T07:07:38;2.03;;;0.40;;
18580;SDS011;9420;50.876;7.012;2023-07-28T07:10:07;3.20;;;0.40;;
18580;SDS011;9420;50.876;7.012;2023-07-28T07:12:34;4.63;;;0.70;;
18580;SDS011;9420;50.876;7.012;2023-07-28T07:15:01;1.00;;;0.80;;
18580;SDS011;9420;50.876;7.012;2023-07-28T07:17:28;1.00;;;0.57;;
18580;SDS011;9420;50.876;7.012;2023-07-28T07:19:54;1.90;;;0.60;;
18580;SDS011;9420;50.876;7.012;2023-07-28T07:22:21;2.60;;;0.60;;
18580;SDS011;9420;50.876;7.012;2023-07-28T07:24:47;1.97;;;0.80;;
18580;SDS011;9420;50.876;7.012;2023-07-28T07:27:15;2.83;;;1.03;;
18580;SDS011;9420;50.876;7.012;2023-07-28T07:29:42;1.73;;;0.90;;
18580;SDS011;9420;50.876;7.012;2023-07-28T07:32:08;3.37;;;0.70;;
18580;SDS011;9420;50.876;7.012;2023-07-28T07:34:36;1.50;;;0.77;;
18580;SDS011;9420;50.876;7.012;2023-07-28T07:37:03;5.53;;;1.17;;
18580;SDS011;9420;50.876;7.012;2023-07-28T07:39:30;1.10;;;0.80;;
18580;SDS011;9420;50.876;7.012;2023-07-28T07:41:57;2.73;;;1.20;;
18580;SDS011;9420;50.876;7.012;2023-07-28T07:44:25;2.30;;;1.07;;
18580;SDS011;9420;50.876;7.012;2023-07-28T07:46:53;2.10;;;0.90;;
18580;SDS011;9420;50.876;7.012;2023-07-28T07:49:19;6.03;;;1.47;;
18580;SDS011;9420;50.876;7.012;2023-07-28T07:51:46;2.67;;;0.73;;
18580;SDS011;9420;50.876;7.012;2023-07-28T07:54:12;4.20;;;1.07;;
18580;SDS011;9420;50.876;7.012;2023-07-28T07:56:41;3.00;;;1.90;;
18580;SDS011;9420;50.876;7.012;2023-07-28T07:59:08;4.90;;;1.87;;
18580;SDS011;9420;50.876;7.012;2023-07-28T08:01:36;2.60;;;1.63;;
18580;SDS011;9420;50.876;7.012;2023-07-28T08:04:03;8.90;;;2.60;;
18580;SDS011;9420;50.876;7.012;2023-07-28T08:06:29;6.00;;;2.23;;
18580;SDS011;9420;50.876;7.012;2023-07-28T08:08:56;4.50;;;2.87;;
18580;SDS011;9420;50.876;7.012;2023-07-28T08:11:24;4.90;;;2.93;;
18580;SDS011;9420;50.876;7.012;2023-07-28T08:13:51;3.10;;;2.60;;
18580;SDS011;9420;50.876;7.012;2023-07-28T08:16:17;6.57;;;2.87;;
18580;SDS011;9420;50.876;7.012;2023-07-28T08:18:45;4.10;;;2.80;;
18580;SDS011;9420;50.876;7.012;2023-07-28T08:21:12;6.20;;;2.03;;
18580;SDS011;9420;50.876;7.012;2023-07-28T08:23:38;2.63;;;2.10;;
18580;SDS011;9420;50.876;7.012;2023-07-28T08:26:05;3.07;;;2.20;;
18580;SDS011;9420;50.876;7.012;2023-07-28T08:28:32;1.97;;;1.70;;
18580;SDS011;9420;50.876;7.012;2023-07-28T08:30:58;4.87;;;2.13;;
18580;SDS011;9420;50.876;7.012;2023-07-28T08:33:25;3.20;;;1.37;;
18580;SDS011;9420;50.876;7.012;2023-07-28T08:35:53;2.10;;;0.97;;
18580;SDS011;9420;50.876;7.012;2023-07-28T08:38:20;1.03;;;0.93;;
18580;SDS011;9420;50.876;7.012;2023-07-28T08:40:46;1.13;;;0.93;;
18580;SDS011;9420;50.876;7.012;2023-07-28T08:43:13;0.60;;;0.57;;
18580;SDS011;9420;50.876;7.012;2023-07-28T08:45:41;0.50;;;0.50;;
18580;SDS011;9420;50.876;7.012;2023-07-28T08:48:07;0.90;;;0.70;;
18580;SDS011;9420;50.876;7.012;2023-07-28T08:50:34;4.20;;;0.70;;
18580;SDS011;9420;50.876;7.012;2023-07-28T08:53:02;4.80;;;0.93;;
18580;SDS011;9420;50.876;7.012;2023-07-28T08:55:28;1.07;;;0.87;;
18580;SDS011;9420;50.876;7.012;2023-07-28T08:57:55;0.60;;;0.57;;
18580;SDS011;9420;50.876;7.012;2023-07-28T09:00:22;2.00;;;0.67;;
18580;SDS011;9420;50.876;7.012;2023-07-28T09:02:50;3.13;;;0.90;;
18580;SDS011;9420;50.876;7.012;2023-07-28T09:05:17;1.47;;;1.37;;
18580;SDS011;9420;50.876;7.012;2023-07-28T09:07:44;1.10;;;0.90;;
18580;SDS011;9420;50.876;7.012;2023-07-28T09:10:13;1.37;;;1.00;;
18580;SDS011;9420;50.876;7.012;2023-07-28T09:12:44;1.83;;;1.10;;
18580;SDS011;9420;50.876;7.012;2023-07-28T09:15:11;2.50;;;1.10;;
18580;SDS011;9420;50.876;7.012;2023-07-28T09:17:41;1.67;;;1.20;;
18580;SDS011;9420;50.876;7.012;2023-07-28T09:20:08;1.87;;;1.30;;
18580;SDS011;9420;50.876;7.012;2023-07-28T09:22:39;1.00;;;1.00;;
18580;SDS011;9420;50.876;7.012;2023-07-28T09:25:11;1.43;;;1.00;;
18580;SDS011;9420;50.876;7.012;2023-07-28T09:27:40;2.77;;;1.53;;
18580;SDS011;9420;50.876;7.012;2023-07-28T09:30:15;1.40;;;1.20;;
18580;SDS011;9420;50.876;7.012;2023-07-28T09:32:46;1.93;;;0.83;;
18580;SDS011;9420;50.876;7.012;2023-07-28T09:35:14;1.20;;;1.10;;
18580;SDS011;9420;50.876;7.012;2023-07-28T09:37:42;1.77;;;1.07;;
18580;SDS011;9420;50.876;7.012;2023-07-28T09:40:10;0.87;;;0.73;;
18580;SDS011;9420;50.876;7.012;2023-07-28T09:42:39;0.67;;;0.50;;
18580;SDS011;9420;50.876;7.012;2023-07-28T09:45:07;2.50;;;0.80;;
18580;SDS011;9420;50.876;7.012;2023-07-28T09:47:35;0.83;;;0.70;;
18580;SDS011;9420;50.876;7.012;2023-07-28T09:50:03;0.50;;;0.50;;
18580;SDS011;9420;50.876;7.012;2023-07-28T09:52:31;0.30;;;0.30;;
18580;SDS011;9420;50.876;7.012;2023-07-28T09:55:02;0.30;;;0.30;;
18580;SDS011;9420;50.876;7.012;2023-07-28T09:57:33;0.27;;;0.27;;
18580;SDS011;9420;50.876;7.012;2023-07-28T10:00:15;2.30;;;0.40;;
18580;SDS011;9420;50.876;7.012;2023-07-28T10:02:43;1.00;;;0.60;;
18580;SDS011;9420;50.876;7.012;2023-07-28T10:05:11;0.50;;;0.40;;
18580;SDS011;9420;50.876;7.012;2023-07-28T10:07:39;0.70;;;0.60;;
18580;SDS011;9420;50.876;7.012;2023-07-28T10:10:07;0.73;;;0.60;;
18580;SDS011;9420;50.876;7.012;2023-07-28T10:12:42;0.60;;;0.60;;
18580;SDS011;9420;50.876;7.012;2023-07-28T10:15:17;2.13;;;0.70;;
18580;SDS011;9420;50.876;7.012;2023-07-28T10:17:46;0.50;;;0.50;;
18580;SDS011;9420;50.876;7.012;2023-07-28T10:20:27;1.00;;;0.60;;
18580;SDS011;9420;50.876;7.012;2023-07-28T10:23:01;1.60;;;0.40;;
18580;SDS011;9420;50.876;7.012;2023-07-28T10:25:30;1.83;;;0.73;;
18580;SDS011;9420;50.876;7.012;2023-07-28T10:27:59;2.63;;;0.60;;
18580;SDS011;9420;50.876;7.012;2023-07-28T10:30:28;0.70;;;0.57;;
18580;SDS011;9420;50.876;7.012;2023-07-28T10:33:01;2.63;;;0.63;;
18580;SDS011;9420;50.876;7.012;2023-07-28T10:35:28;0.30;;;0.30;;
18580;SDS011;9420;50.876;7.012;2023-07-28T10:37:57;1.93;;;0.70;;
18580;SDS011;9420;50.876;7.012;2023-07-28T10:40:26;3.20;;;0.97;;
18580;SDS011;9420;50.876;7.012;2023-07-28T10:42:54;2.23;;;0.90;;
18580;SDS011;9420;50.876;7.012;2023-07-28T10:45:22;3.70;;;1.20;;
18580;SDS011;9420;50.876;7.012;2023-07-28T10:47:51;1.00;;;1.00;;
18580;SDS011;9420;50.876;7.012;2023-07-28T10:50:20;1.53;;;0.90;;
18580;SDS011;9420;50.876;7.012;2023-07-28T10:52:48;1.03;;;0.87;;
18580;SDS011;9420;50.876;7.012;2023-07-28T10:55:14;0.70;;;0.70;;
18580;SDS011;9420;50.876;7.012;2023-07-28T10:57:41;0.85;;;0.68;;
18580;SDS011;9420;50.876;7.012;2023-07-28T11:00:09;0.75;;;0.73;;
18580;SDS011;9420;50.876;7.012;2023-07-28T11:02:38;1.27;;;0.47;;
18580;SDS011;9420;50.876;7.012;2023-07-28T11:05:09;1.00;;;0.53;;
18580;SDS011;9420;50.876;7.012;2023-07-28T11:07:40;1.07;;;0.90;;
18580;SDS011;9420;50.876;7.012;2023-07-28T11:10:08;0.67;;;0.63;;
18580;SDS011;9420;50.876;7.012;2023-07-28T11:12:38;0.80;;;0.70;;
18580;SDS011;9420;50.876;7.012;2023-07-28T11:15:07;1.35;;;0.50;;
18580;SDS011;9420;50.876;7.012;2023-07-28T11:17:36;2.88;;;0.70;;
18580;SDS011;9420;50.876;7.012;2023-07-28T11:20:03;1.45;;;0.47;;
18580;SDS011;9420;50.876;7.012;2023-07-28T11:22:37;0.55;;;0.30;;
18580;SDS011;9420;50.876;7.012;2023-07-28T11:25:05;2.55;;;0.50;;
18580;SDS011;9420;50.876;7.012;2023-07-28T11:27:34;0.40;;;0.40;;
18580;SDS011;9420;50.876;7.012;2023-07-28T11:30:01;0.50;;;0.50;;
18580;SDS011;9420;50.876;7.012;2023-07-28T11:32:30;0.73;;;0.52;;
18580;SDS011;9420;50.876;7.012;2023-07-28T11:35:02;0.80;;;0.40;;
18580;SDS011;9420;50.876;7.012;2023-07-28T11:37:29;0.40;;;0.30;;
18580;SDS011;9420;50.876;7.012;2023-07-28T11:39:58;0.38;;;0.38;;
18580;SDS011;9420;50.876;7.012;2023-07-28T11:42:25;0.30;;;0.30;;
18580;SDS011;9420;50.876;7.012;2023-07-28T11:44:52;0.40;;;0.40;;
18580;SDS011;9420;50.876;7.012;2023-07-28T11:47:19;0.60;;;0.60;;
18580;SDS011;9420;50.876;7.012;2023-07-28T11:49:46;1.03;;;0.50;;
18580;SDS011;9420;50.876;7.012;2023-07-28T11:52:13;0.60;;;0.60;;
18580;SDS011;9420;50.876;7.012;2023-07-28T11:54:41;0.63;;;0.57;;
18580;SDS011;9420;50.876;7.012;2023-07-28T11:57:11;0.90;;;0.80;;
18580;SDS011;9420;50.876;7.012;2023-07-28T11:59:38;0.77;;;0.60;;
18580;SDS011;9420;50.876;7.012;2023-07-28T12:02:06;1.10;;;0.60;;
18580;SDS011;9420;50.876;7.012;2023-07-28T12:04:35;1.10;;;0.70;;
18580;SDS011;9420;50.876;7.012;2023-07-28T12:07:04;1.07;;;0.53;;
18580;SDS011;9420;50.876;7.012;2023-07-28T12:09:33;0.45;;;0.40;;
18580;SDS011;9420;50.876;7.012;2023-07-28T12:12:00;0.60;;;0.50;;
18580;SDS011;9420;50.876;7.012;2023-07-28T12:14:34;0.60;;;0.57;;
18580;SDS011;9420;50.876;7.012;2023-07-28T12:17:01;0.60;;;0.60;;
18580;SDS011;9420;50.876;7.012;2023-07-28T12:19:28;2.15;;;0.80;;
18580;SDS011;9420;50.876;7.012;2023-07-28T12:21:55;0.50;;;0.50;;
18580;SDS011;9420;50.876;7.012;2023-07-28T12:24:21;1.45;;;0.50;;
18580;SDS011;9420;50.876;7.012;2023-07-28T12:26:48;1.60;;;0.82;;
18580;SDS011;9420;50.876;7.012;2023-07-28T12:29:17;0.80;;;0.77;;
18580;SDS011;9420;50.876;7.012;2023-07-28T12:31:45;1.45;;;0.60;;
18580;SDS011;9420;50.876;7.012;2023-07-28T12:34:11;2.35;;;0.77;;
18580;SDS011;9420;50.876;7.012;2023-07-28T12:36:38;0.47;;;0.40;;
18580;SDS011;9420;50.876;7.012;2023-07-28T12:39:05;0.63;;;0.38;;
18580;SDS011;9420;50.876;7.012;2023-07-28T12:41:32;0.45;;;0.43;;
18580;SDS011;9420;50.876;7.012;2023-07-28T12:43:59;3.30;;;0.70;;
18580;SDS011;9420;50.876;7.012;2023-07-28T12:46:25;0.90;;;0.60;;
18580;SDS011;9420;50.876;7.012;2023-07-28T12:48:53;1.38;;;0.60;;
18580;SDS011;9420;50.876;7.012;2023-07-28T12:51:20;0.50;;;0.45;;
18580;SDS011;9420;50.876;7.012;2023-07-28T12:53:47;2.00;;;0.45;;
18580;SDS011;9420;50.876;7.012;2023-07-28T12:56:14;1.30;;;0.50;;
18580;SDS011;9420;50.876;7.012;2023-07-28T12:58:41;0.40;;;0.40;;
18580;SDS011;9420;50.876;7.012;2023-07-28T13:01:08;0.73;;;0.50;;
18580;SDS011;9420;50.876;7.012;2023-07-28T13:03:37;0.50;;;0.50;;
18580;SDS011;9420;50.876;7.012;2023-07-28T13:06:05;2.80;;;0.70;;
18580;SDS011;9420;50.876;7.012;2023-07-28T13:08:31;2.03;;;1.13;;
18580;SDS011;9420;50.876;7.012;2023-07-28T13:10:58;2.23;;;0.70;;
18580;SDS011;9420;50.876;7.012;2023-07-28T13:13:25;1.40;;;0.73;;
18580;SDS011;9420;50.876;7.012;2023-07-28T13:15:53;1.63;;;0.63;;
18580;SDS011;9420;50.876;7.012;2023-07-28T13:18:20;1.03;;;0.70;;
18580;SDS011;9420;50.876;7.012;2023-07-28T13:20:46;2.30;;;0.50;;
18580;SDS011;9420;50.876;7.012;2023-07-28T13:23:14;0.33;;;0.33;;
18580;SDS011;9420;50.876;7.012;2023-07-28T13:25:41;1.80;;;0.83;;
18580;SDS011;9420;50.876;7.012;2023-07-28T13:28:08;1.90;;;1.00;;
18580;SDS011;9420;50.876;7.012;2023-07-28T13:30:34;1.30;;;0.57;;
18580;SDS011;9420;50.876;7.012;2023-07-28T13:33:01;0.53;;;0.50;;
18580;SDS011;9420;50.876;7.012;2023-07-28T13:35:28;0.60;;;0.60;;
18580;SDS011;9420;50.876;7.012;2023-07-28T13:37:54;0.97;;;0.40;;
18580;SDS011;9420;50.876;7.012;2023-07-28T13:40:22;3.30;;;0.80;;
18580;SDS011;9420;50.876;7.012;2023-07-28T13:42:49;0.60;;;0.40;;
18580;SDS011;9420;50.876;7.012;2023-07-28T13:45:16;0.70;;;0.50;;
18580;SDS011;9420;50.876;7.012;2023-07-28T13:47:42;1.40;;;0.40;;
18580;SDS011;9420;50.876;7.012;2023-07-28T13:50:09;1.07;;;0.70;;
18580;SDS011;9420;50.876;7.012;2023-07-28T13:52:36;3.37;;;0.93;;
18580;SDS011;9420;50.876;7.012;2023-07-28T13:55:02;1.87;;;1.03;;
18580;SDS011;9420;50.876;7.012;2023-07-28T13:57:32;1.53;;;0.60;;
18580;SDS011;9420;50.876;7.012;2023-07-28T13:59:58;0.60;;;0.60;;
18580;SDS011;9420;50.876;7.012;2023-07-28T14:02:25;0.97;;;0.93;;
18580;SDS011;9420;50.876;7.012;2023-07-28T14:04:52;1.80;;;0.80;;
18580;SDS011;9420;50.876;7.012;2023-07-28T14:07:19;1.77;;;1.10;;
18580;SDS011;9420;50.876;7.012;2023-07-28T14:09:45;1.20;;;0.90;;
18580;SDS011;9420;50.876;7.012;2023-07-28T14:12:12;0.63;;;0.60;;
18580;SDS011;9420;50.876;7.012;2023-07-28T14:14:40;0.73;;;0.50;;
18580;SDS011;9420;50.876;7.012;2023-07-28T14:17:06;0.43;;;0.43;;
18580;SDS011;9420;50.876;7.012;2023-07-28T14:19:33;0.93;;;0.47;;
18580;SDS011;9420;50.876;7.012;2023-07-28T14:21:59;3.13;;;1.00;;
18580;SDS011;9420;50.876;7.012;2023-07-28T14:24:26;1.80;;;0.60;;
18580;SDS011;9420;50.876;7.012;2023-07-28T14:26:53;0.53;;;0.53;;
18580;SDS011;9420;50.876;7.012;2023-07-28T14:29:20;1.13;;;0.30;;
18580;SDS011;9420;50.876;7.012;2023-07-28T14:31:48;1.07;;;0.50;;
18580;SDS011;9420;50.876;7.012;2023-07-28T14:34:15;7.30;;;0.93;;
18580;SDS011;9420;50.876;7.012;2023-07-28T14:36:42;0.60;;;0.50;;
18580;SDS011;9420;50.876;7.012;2023-07-28T14:39:08;0.57;;;0.57;;
18580;SDS011;9420;50.876;7.012;2023-07-28T14:41:35;1.90;;;0.40;;
18580;SDS011;9420;50.876;7.012;2023-07-28T14:44:02;0.57;;;0.40;;
18580;SDS011;9420;50.876;7.012;2023-07-28T14:46:29;1.30;;;0.40;;
18580;SDS011;9420;50.876;7.012;2023-07-28T14:48:57;0.57;;;0.43;;
18580;SDS011;9420;50.876;7.012;2023-07-28T14:51:24;2.40;;;0.40;;
18580;SDS011;9420;50.876;7.012;2023-07-28T14:53:51;0.45;;;0.22;;
18580;SDS011;9420;50.876;7.012;2023-07-28T14:56:18;5.65;;;0.60;;
18580;SDS011;9420;50.876;7.012;2023-07-28T14:58:49;0.77;;;0.30;;
18580;SDS011;9420;50.876;7.012;2023-07-28T15:01:20;0.20;;;0.20;;